Time;durP1;ratioP1;P1;durP2;ratioP2;P2;SDS_P1;SDS_P2;PMS_P1;PMS_P2;Temp;Humidity;BMP_temperature;BMP_pressure;BME280_temperature;BME280_humidity;BME280_pressure;Samples;Min_cycle;Max_cycle;Signal;HPM_P1;HPM_P2
2022/07/13 00:00:00;;;;;;;5.00;4.27;;;25.50;99.90;;;;;;1046965;28;20031;-64
2022/07/13 00:00:31;;;;;;;4.07;3.67;;;25.50;99.90;;;;;;1047409;28;20052;-64
2022/07/13 00:01:01;;;;;;;4.83;4.33;;;25.50;99.90;;;;;;1046713;28;20364;-64
2022/07/13 00:01:32;;;;;;;4.07;3.77;;;25.50;99.90;;;;;;1046653;28;20067;-64
2022/07/13 00:02:03;;;;;;;3.87;3.57;;;25.50;99.90;;;;;;1046495;28;20029;-65
2022/07/13 00:02:33;;;;;;;4.43;4.03;;;25.50;99.90;;;;;;1047411;28;20445;-64
2022/07/13 00:03:04;;;;;;;4.03;3.73;;;25.50;99.90;;;;;;1047221;28;20269;-65
2022/07/13 00:03:35;;;;;;;3.63;3.33;;;25.50;99.90;;;;;;1047169;28;20095;-64
2022/07/13 00:04:05;;;;;;;3.90;3.60;;;25.50;99.90;;;;;;1047410;28;20013;-64
2022/07/13 00:04:36;;;;;;;4.93;3.70;;;25.50;99.90;;;;;;1047279;28;20020;-64
2022/07/13 00:05:07;;;;;;;4.20;3.23;;;25.50;99.90;;;;;;1047717;28;20493;-64
2022/07/13 00:05:37;;;;;;;3.78;3.45;;;25.50;99.90;;;;;;1047331;28;20013;-64
2022/07/13 00:06:08;;;;;;;4.23;3.50;;;25.50;99.90;;;;;;1047292;28;20017;-64
2022/07/13 00:06:39;;;;;;;3.90;3.60;;;25.50;99.90;;;;;;1047229;28;20016;-64
2022/07/13 00:07:09;;;;;;;3.83;3.53;;;25.50;99.90;;;;;;1047508;28;20353;-64
2022/07/13 00:07:40;;;;;;;3.97;3.67;;;25.50;99.90;;;;;;1047411;28;20044;-65
2022/07/13 00:08:10;;;;;;;3.40;3.10;;;25.50;99.90;;;;;;1047160;28;20012;-65
2022/07/13 00:08:41;;;;;;;3.93;3.53;;;25.50;99.90;;;;;;1047210;28;20001;-65
2022/07/13 00:09:12;;;;;;;4.30;3.90;;;25.50;99.90;;;;;;1047348;28;20016;-65
2022/07/13 00:09:42;;;;;;;4.47;4.07;;;25.50;99.90;;;;;;1047138;28;20474;-65
2022/07/13 00:10:16;;;;;;;4.77;3.70;;;25.50;99.90;;;;;;1047530;28;20454;-64
2022/07/13 00:10:46;;;;;;;4.38;3.97;;;25.50;99.90;;;;;;1046809;28;20030;-65
2022/07/13 00:11:17;;;;;;;4.57;4.10;;;25.50;99.90;;;;;;1043081;28;20110;-65
2022/07/13 00:11:47;;;;;;;3.93;3.63;;;25.50;99.90;;;;;;1042661;28;20249;-65
2022/07/13 00:12:18;;;;;;;4.30;3.90;;;25.50;99.90;;;;;;1043079;28;20029;-64
2022/07/13 00:12:49;;;;;;;4.20;3.80;;;25.50;99.90;;;;;;1043074;28;20690;-64
2022/07/13 00:13:20;;;;;;;5.50;3.85;;;25.50;99.90;;;;;;1042965;28;20024;-63
2022/07/13 00:13:51;;;;;;;4.77;4.23;;;25.50;99.90;;;;;;1042643;28;20746;-65
2022/07/13 00:14:21;;;;;;;4.07;3.63;;;25.50;99.90;;;;;;1043200;28;20013;-66
2022/07/13 00:14:52;;;;;;;4.13;3.77;;;25.50;99.90;;;;;;1046726;28;20612;-66
2022/07/13 00:15:22;;;;;;;4.03;3.70;;;25.50;99.90;;;;;;1047831;28;20020;-66
2022/07/13 00:15:53;;;;;;;4.53;3.97;;;25.50;99.90;;;;;;1047090;28;20025;-66
2022/07/13 00:16:23;;;;;;;4.40;4.00;;;25.50;99.90;;;;;;1047556;28;20013;-64
2022/07/13 00:16:54;;;;;;;5.57;4.10;;;25.50;99.90;;;;;;1046976;28;20066;-63
2022/07/13 00:17:25;;;;;;;4.10;3.70;;;25.50;99.90;;;;;;1047479;28;20024;-64
2022/07/13 00:17:55;;;;;;;4.93;4.47;;;25.50;99.90;;;;;;1047375;28;20104;-65
2022/07/13 00:18:26;;;;;;;4.90;4.40;;;25.50;99.90;;;;;;1047064;28;20181;-64
2022/07/13 00:18:57;;;;;;;5.53;3.93;;;25.50;99.90;;;;;;1046800;28;20514;-64
2022/07/13 00:19:27;;;;;;;4.43;4.10;;;25.50;99.90;;;;;;1047078;28;20035;-66
2022/07/13 00:19:58;;;;;;;3.70;3.40;;;25.50;99.90;;;;;;1046715;28;20031;-64
2022/07/13 00:20:29;;;;;;;4.40;4.00;;;25.50;99.90;;;;;;1047118;28;20020;-64
2022/07/13 00:21:00;;;;;;;4.63;4.23;;;25.50;99.90;;;;;;1047068;28;20539;-65
2022/07/13 00:21:30;;;;;;;5.28;4.78;;;25.50;99.90;;;;;;1042966;28;20013;-65
2022/07/13 00:22:01;;;;;;;5.07;4.67;;;25.50;99.90;;;;;;1046965;28;20415;-65
2022/07/13 00:22:32;;;;;;;4.97;4.47;;;25.40;99.90;;;;;;1046997;28;20016;-64
2022/07/13 00:23:03;;;;;;;4.53;4.13;;;25.40;99.90;;;;;;1047227;28;20443;-64
2022/07/13 00:23:33;;;;;;;5.10;4.70;;;25.40;99.90;;;;;;1046994;28;20013;-64
2022/07/13 00:24:04;;;;;;;5.10;4.60;;;25.40;99.90;;;;;;1046765;28;20044;-65
2022/07/13 00:24:35;;;;;;;5.87;5.27;;;25.40;99.90;;;;;;1042564;28;20040;-64
2022/07/13 00:25:06;;;;;;;4.63;4.23;;;25.40;99.90;;;;;;1042899;28;20023;-64
2022/07/13 00:25:37;;;;;;;6.65;4.78;;;25.40;99.90;;;;;;1042947;28;20100;-66
2022/07/13 00:26:09;;;;;;;4.50;4.10;;;25.40;99.90;;;;;;1043069;28;20016;-63
2022/07/13 00:26:40;;;;;;;5.00;4.57;;;25.40;99.90;;;;;;1042566;28;20560;-67
2022/07/13 00:27:10;;;;;;;5.30;4.80;;;25.40;99.90;;;;;;1042776;28;20084;-66
2022/07/13 00:27:41;;;;;;;4.80;4.33;;;25.40;99.90;;;;;;1042757;28;20025;-65
2022/07/13 00:28:12;;;;;;;4.80;4.40;;;25.40;99.90;;;;;;1038762;28;20517;-66
2022/07/13 00:28:42;;;;;;;5.20;4.70;;;25.40;99.90;;;;;;1038966;28;20540;-66
2022/07/13 00:29:13;;;;;;;4.63;4.23;;;25.40;99.90;;;;;;1042951;28;20365;-66
2022/07/13 00:29:43;;;;;;;5.47;4.97;;;25.40;99.90;;;;;;1042592;28;20138;-64
2022/07/13 00:30:14;;;;;;;5.80;5.20;;;25.40;99.90;;;;;;1043240;28;20005;-64
2022/07/13 00:30:45;;;;;;;5.57;5.07;;;25.40;99.90;;;;;;1042593;28;20823;-64
2022/07/13 00:31:15;;;;;;;5.40;4.90;;;25.40;99.90;;;;;;1043019;28;20024;-64
2022/07/13 00:31:49;;;;;;;5.10;4.60;;;25.30;99.90;;;;;;1042779;28;20070;-64
2022/07/13 00:32:19;;;;;;;5.53;5.03;;;25.30;99.90;;;;;;1042843;28;20017;-65
2022/07/13 00:32:50;;;;;;;5.20;4.80;;;25.30;99.90;;;;;;1038996;28;20025;-65
2022/07/13 00:33:20;;;;;;;5.73;5.23;;;25.30;99.90;;;;;;1038902;28;20025;-65
2022/07/13 00:33:51;;;;;;;6.03;4.67;;;25.30;99.90;;;;;;1038755;28;20412;-64
2022/07/13 00:34:22;;;;;;;5.03;4.63;;;25.30;99.90;;;;;;1034853;28;20017;-65
2022/07/13 00:34:52;;;;;;;4.80;4.40;;;25.30;99.90;;;;;;1038622;28;20009;-64
2022/07/13 00:35:23;;;;;;;5.07;4.63;;;25.30;99.90;;;;;;1042924;28;20717;-65
2022/07/13 00:35:53;;;;;;;4.60;4.20;;;25.30;99.90;;;;;;1042587;28;20017;-65
2022/07/13 00:36:24;;;;;;;4.90;4.50;;;25.30;99.90;;;;;;1043180;28;20017;-65
2022/07/13 00:36:55;;;;;;;5.20;4.73;;;25.30;99.90;;;;;;1042872;28;20464;-64
2022/07/13 00:37:26;;;;;;;5.50;5.00;;;25.30;99.90;;;;;;1043225;28;20563;-64
2022/07/13 00:37:57;;;;;;;4.87;4.47;;;25.30;99.90;;;;;;1042378;28;20131;-64
2022/07/13 00:38:28;;;;;;;5.30;4.80;;;25.30;99.90;;;;;;1045881;28;20447;-64
2022/07/13 00:38:59;;;;;;;4.95;4.55;;;25.30;99.90;;;;;;1046856;28;20027;-65
2022/07/13 00:39:29;;;;;;;4.63;4.13;;;25.30;99.90;;;;;;1042817;28;20028;-65
2022/07/13 00:40:00;;;;;;;4.60;4.20;;;25.30;99.90;;;;;;1046666;28;20021;-64
2022/07/13 00:40:31;;;;;;;5.30;4.80;;;25.30;99.90;;;;;;1046735;28;20048;-65
2022/07/13 00:41:04;;;;;;;4.70;4.30;;;25.30;99.90;;;;;;1046747;28;20016;-65
2022/07/13 00:41:35;;;;;;;5.07;4.60;;;25.30;99.90;;;;;;1047090;28;20396;-65
2022/07/13 00:42:06;;;;;;;5.40;4.90;;;25.30;99.90;;;;;;1046571;28;20545;-65
2022/07/13 00:42:36;;;;;;;5.80;5.20;;;25.30;99.90;;;;;;1046876;28;20023;-65
2022/07/13 00:43:07;;;;;;;5.00;4.60;;;25.30;99.90;;;;;;1046586;28;20008;-65
2022/07/13 00:43:37;;;;;;;4.90;4.43;;;25.30;99.90;;;;;;1046826;28;20020;-65
2022/07/13 00:44:09;;;;;;;4.60;4.20;;;25.30;99.90;;;;;;1047141;28;20048;-65
2022/07/13 00:44:39;;;;;;;4.88;4.38;;;25.30;99.90;;;;;;1047281;28;20379;-64
2022/07/13 00:45:10;;;;;;;5.33;4.80;;;25.30;99.90;;;;;;1047160;28;20544;-65
2022/07/13 00:45:40;;;;;;;5.00;4.23;;;25.30;99.90;;;;;;1047062;28;20032;-64
2022/07/13 00:46:13;;;;;;;5.20;4.70;;;25.30;99.90;;;;;;1047160;28;20028;-65
2022/07/13 00:46:51;;;;;;;4.32;3.92;;;25.30;99.90;;;;;;1047556;28;20066;-65
2022/07/13 00:47:22;;;;;;;4.28;3.70;;;25.30;99.90;;;;;;1046970;28;20021;-65
2022/07/13 00:47:54;;;;;;;4.38;3.97;;;25.30;99.90;;;;;;1047278;28;20049;-65
2022/07/13 00:48:25;;;;;;;4.50;4.10;;;25.30;99.90;;;;;;1046504;28;20110;-65
2022/07/13 00:48:56;;;;;;;4.35;3.95;;;25.30;99.90;;;;;;1047061;28;20021;-67
2022/07/13 00:49:27;;;;;;;6.67;4.87;;;25.30;99.90;;;;;;1046775;28;20107;-65
2022/07/13 00:50:01;;;;;;;5.07;4.57;;;25.30;99.90;;;;;;1047074;28;20105;-65
2022/07/13 00:50:32;;;;;;;4.40;4.00;;;25.30;99.90;;;;;;1046932;28;20032;-65
2022/07/13 00:51:04;;;;;;;4.60;4.20;;;25.30;99.90;;;;;;1046990;28;20021;-65
2022/07/13 00:51:35;;;;;;;5.10;4.28;;;25.30;99.90;;;;;;1046613;28;20028;-64
2022/07/13 00:52:06;;;;;;;4.50;4.10;;;25.30;99.90;;;;;;1042992;28;20181;-65
2022/07/13 00:52:37;;;;;;;4.23;3.83;;;25.30;99.90;;;;;;1038297;28;20021;-64
2022/07/13 00:53:08;;;;;;;4.47;3.75;;;25.30;99.90;;;;;;1038601;28;20024;-65
2022/07/13 00:53:39;;;;;;;4.35;3.95;;;25.30;99.90;;;;;;1038647;28;20033;-65
2022/07/13 00:54:11;;;;;;;4.50;4.10;;;25.30;99.90;;;;;;1043256;28;20013;-64
2022/07/13 00:54:43;;;;;;;4.32;3.95;;;25.30;99.90;;;;;;1046454;28;20474;-64
2022/07/13 00:55:14;;;;;;;4.50;4.10;;;25.30;99.90;;;;;;1046874;28;20043;-65
2022/07/13 00:55:48;;;;;;;4.60;4.00;;;25.30;99.90;;;;;;1046802;28;20036;-64
2022/07/13 00:56:19;;;;;;;5.18;4.68;;;25.30;99.90;;;;;;1047016;28;20158;-64
2022/07/13 00:56:49;;;;;;;4.90;4.50;;;25.30;99.90;;;;;;1047312;28;20017;-65
2022/07/13 00:57:21;;;;;;;4.97;4.57;;;25.30;99.90;;;;;;1046706;28;20028;-64
2022/07/13 00:57:52;;;;;;;5.20;4.70;;;25.30;99.90;;;;;;1046619;28;20088;-66
2022/07/13 00:58:24;;;;;;;4.95;4.28;;;25.30;99.90;;;;;;1046936;28;20428;-65
2022/07/13 00:58:57;;;;;;;6.45;5.72;;;25.30;99.90;;;;;;1046461;28;20017;-64
2022/07/13 00:59:28;;;;;;;5.68;5.18;;;25.20;99.90;;;;;;1047435;28;20096;-65
2022/07/13 01:00:00;;;;;;;5.72;5.22;;;25.20;99.90;;;;;;1046630;28;20031;-65
2022/07/13 01:00:30;;;;;;;5.18;4.68;;;25.20;99.90;;;;;;1046756;28;20009;-65
2022/07/13 01:01:01;;;;;;;5.60;5.10;;;25.20;99.90;;;;;;1046789;28;20052;-65
2022/07/13 01:01:31;;;;;;;5.43;4.93;;;25.20;99.90;;;;;;1046784;28;20017;-65
2022/07/13 01:02:02;;;;;;;5.43;4.93;;;25.20;99.90;;;;;;1047005;28;20027;-65
2022/07/13 01:02:36;;;;;;;5.55;4.53;;;25.20;99.90;;;;;;1046782;28;20051;-65
2022/07/13 01:03:06;;;;;;;5.65;5.15;;;25.20;99.90;;;;;;1046568;28;20111;-64
2022/07/13 01:03:37;;;;;;;10.33;4.67;;;25.20;99.90;;;;;;1046739;28;20020;-64
2022/07/13 01:04:07;;;;;;;4.80;4.40;;;25.20;99.90;;;;;;1046537;28;20035;-65
2022/07/13 01:04:38;;;;;;;5.47;4.97;;;25.20;99.90;;;;;;1047510;28;20013;-65
2022/07/13 01:05:14;;;;;;;5.15;4.65;;;25.20;99.90;;;;;;1046873;28;20012;-65
2022/07/13 01:05:44;;;;;;;6.18;5.68;;;25.20;99.90;;;;;;1047190;28;20375;-65
2022/07/13 01:06:17;;;;;;;6.03;5.50;;;25.20;99.90;;;;;;1046897;28;20526;-64
2022/07/13 01:06:48;;;;;;;5.13;4.72;;;25.20;99.90;;;;;;1046671;28;20017;-65
2022/07/13 01:07:19;;;;;;;5.25;4.85;;;25.20;99.90;;;;;;1046858;28;20016;-64
2022/07/13 01:07:50;;;;;;;5.10;4.63;;;25.20;99.90;;;;;;1046671;28;20087;-64
2022/07/13 01:08:22;;;;;;;6.47;5.20;;;25.20;99.90;;;;;;1046326;28;20407;-65
2022/07/13 01:08:52;;;;;;;5.25;4.65;;;25.20;99.90;;;;;;1046931;28;20125;-66
2022/07/13 01:09:23;;;;;;;5.47;4.70;;;25.20;99.90;;;;;;1046954;28;20066;-66
2022/07/13 01:09:54;;;;;;;5.00;4.50;;;25.20;99.90;;;;;;1046804;28;20384;-65
2022/07/13 01:10:25;;;;;;;4.53;4.13;;;25.20;99.90;;;;;;1046562;28;20035;-65
2022/07/13 01:10:57;;;;;;;5.13;3.97;;;25.20;99.90;;;;;;1046691;28;20028;-64
2022/07/13 01:11:29;;;;;;;4.82;4.43;;;25.20;99.90;;;;;;1042462;28;20584;-64
2022/07/13 01:12:00;;;;;;;4.93;4.38;;;25.20;99.90;;;;;;1038694;28;20033;-63
2022/07/13 01:12:31;;;;;;;5.40;4.90;;;25.20;99.90;;;;;;1038900;28;20025;-66
2022/07/13 01:13:02;;;;;;;4.97;4.57;;;25.20;99.90;;;;;;1038622;28;20025;-66
2022/07/13 01:13:34;;;;;;;5.33;4.83;;;25.20;99.90;;;;;;1042229;28;20021;-66
2022/07/13 01:14:05;;;;;;;4.97;4.57;;;25.20;99.90;;;;;;1046641;28;20048;-63
2022/07/13 01:14:36;;;;;;;5.83;5.17;;;25.10;99.90;;;;;;1046454;28;20021;-66
2022/07/13 01:15:07;;;;;;;5.32;4.43;;;25.10;99.90;;;;;;1047020;28;20019;-64
2022/07/13 01:15:39;;;;;;;4.35;4.00;;;25.10;99.90;;;;;;1046663;28;20694;-64
2022/07/13 01:16:10;;;;;;;5.28;4.78;;;25.10;99.90;;;;;;1047188;28;20013;-63
2022/07/13 01:16:41;;;;;;;5.03;4.53;;;25.10;99.90;;;;;;1046947;28;20024;-65
2022/07/13 01:17:12;;;;;;;5.20;4.78;;;25.10;99.90;;;;;;1046598;28;20013;-65
2022/07/13 01:17:43;;;;;;;4.60;4.20;;;25.10;99.90;;;;;;1045387;28;20028;-64
2022/07/13 01:18:15;;;;;;;4.60;3.93;;;25.10;99.90;;;;;;1042597;28;20033;-64
2022/07/13 01:18:46;;;;;;;4.63;4.22;;;25.10;99.90;;;;;;1038289;28;20033;-65
2022/07/13 01:19:18;;;;;;;4.78;4.38;;;25.10;99.90;;;;;;1038905;28;20143;-65
2022/07/13 01:19:50;;;;;;;4.57;4.18;;;25.10;99.90;;;;;;1038104;28;20049;-65
2022/07/13 01:20:21;;;;;;;4.97;4.57;;;25.10;99.90;;;;;;1039452;28;20032;-65
2022/07/13 01:20:52;;;;;;;5.03;4.55;;;25.10;99.90;;;;;;1042530;28;20032;-65
2022/07/13 01:21:22;;;;;;;3.83;3.53;;;25.10;99.90;;;;;;1042711;28;20021;-65
2022/07/13 01:21:58;;;;;;;5.93;4.60;;;25.10;99.90;;;;;;1042396;28;20167;-65
2022/07/13 01:22:36;;;;;;;4.18;3.78;;;25.10;99.90;;;;;;1038367;28;20071;-67
2022/07/13 01:23:10;;;;;;;4.80;3.63;;;25.10;99.90;;;;;;1038301;28;20037;-65
2022/07/13 01:23:41;;;;;;;4.28;3.63;;;25.10;99.90;;;;;;1040624;28;20097;-65
2022/07/13 01:24:13;;;;;;;4.80;4.40;;;25.10;99.90;;;;;;1042443;28;20024;-64
2022/07/13 01:24:44;;;;;;;4.28;3.88;;;25.10;99.90;;;;;;1042644;28;20096;-65
2022/07/13 01:25:15;;;;;;;4.30;3.97;;;25.10;99.90;;;;;;1042734;28;20064;-64
2022/07/13 01:25:46;;;;;;;5.40;4.95;;;25.10;99.90;;;;;;1042599;28;20017;-65
2022/07/13 01:26:17;;;;;;;5.53;4.33;;;25.10;99.90;;;;;;1042480;28;20126;-64
2022/07/13 01:26:49;;;;;;;5.73;5.17;;;25.10;99.90;;;;;;1042575;28;20017;-65
2022/07/13 01:27:20;;;;;;;5.43;4.93;;;25.10;99.90;;;;;;1042219;28;20020;-64
2022/07/13 01:27:50;;;;;;;4.77;4.30;;;25.10;99.90;;;;;;1042711;28;20052;-64
2022/07/13 01:28:22;;;;;;;4.90;4.50;;;25.10;99.90;;;;;;1042554;28;20027;-64
2022/07/13 01:28:52;;;;;;;4.85;4.15;;;25.10;99.90;;;;;;1042527;28;20066;-65
2022/07/13 01:29:23;;;;;;;4.77;4.37;;;25.10;99.90;;;;;;1042531;28;20110;-64
2022/07/13 01:29:53;;;;;;;4.87;4.47;;;25.10;99.90;;;;;;1042692;28;20067;-65
2022/07/13 01:30:24;;;;;;;5.20;4.30;;;25.10;99.90;;;;;;1042663;28;20621;-64
2022/07/13 01:30:55;;;;;;;4.87;4.37;;;25.10;99.90;;;;;;1043052;28;20048;-65
2022/07/13 01:31:33;;;;;;;4.63;4.20;;;25.10;99.90;;;;;;1042420;28;20615;-65
2022/07/13 01:32:04;;;;;;;4.53;4.13;;;25.10;99.90;;;;;;1042714;28;20341;-64
2022/07/13 01:32:49;;;;;;;4.93;4.53;;;25.10;99.90;;;;;;1042237;28;20635;-65
2022/07/13 01:33:20;;;;;;;5.05;4.40;;;25.10;99.90;;;;;;1042847;28;20013;-63
2022/07/13 01:33:50;;;;;;;5.07;4.57;;;25.10;99.90;;;;;;1042244;28;20021;-65
2022/07/13 01:34:21;;;;;;;4.70;4.30;;;25.10;99.90;;;;;;1042874;28;20013;-65
2022/07/13 01:34:51;;;;;;;4.80;4.40;;;25.10;99.90;;;;;;1046447;28;20388;-66
2022/07/13 01:35:23;;;;;;;5.33;4.93;;;25.10;99.90;;;;;;1047192;28;20655;-65
2022/07/13 01:35:55;;;;;;;5.07;4.55;;;25.10;99.90;;;;;;1047105;28;20024;-65
2022/07/13 01:36:26;;;;;;;4.55;4.15;;;25.10;99.90;;;;;;1047110;28;20016;-66
2022/07/13 01:36:57;;;;;;;4.40;3.97;;;25.10;99.90;;;;;;1046763;28;20043;-66
2022/07/13 01:37:28;;;;;;;4.65;4.25;;;25.10;99.90;;;;;;1047090;28;20059;-66
2022/07/13 01:37:59;;;;;;;4.57;4.03;;;25.10;99.90;;;;;;1046826;28;20027;-64
2022/07/13 01:38:30;;;;;;;4.68;4.28;;;25.10;99.90;;;;;;1046748;28;20104;-64
2022/07/13 01:39:02;;;;;;;5.03;4.53;;;25.10;99.90;;;;;;1046470;28;20089;-64
2022/07/13 01:39:32;;;;;;;4.55;4.15;;;25.10;99.90;;;;;;1046595;28;20017;-65
2022/07/13 01:40:03;;;;;;;4.03;3.63;;;25.10;99.90;;;;;;1046493;28;20040;-64
2022/07/13 01:40:34;;;;;;;5.10;4.70;;;25.10;99.90;;;;;;1046800;28;20017;-64
2022/07/13 01:41:05;;;;;;;5.07;4.00;;;25.10;99.90;;;;;;1046925;28;20590;-64
2022/07/13 01:41:36;;;;;;;5.10;4.60;;;25.10;99.90;;;;;;1046726;28;20436;-64
2022/07/13 01:42:07;;;;;;;4.80;4.40;;;25.10;99.90;;;;;;1043562;28;20503;-64
2022/07/13 01:42:45;;;;;;;5.57;5.07;;;25.10;99.90;;;;;;1042795;28;20542;-64
2022/07/13 01:43:17;;;;;;;5.32;4.82;;;25.10;99.90;;;;;;1042505;28;20044;-64
2022/07/13 01:43:49;;;;;;;4.85;4.40;;;25.10;99.90;;;;;;1042485;28;20063;-65
2022/07/13 01:44:20;;;;;;;6.15;5.55;;;25.10;99.90;;;;;;1042511;28;20484;-64
2022/07/13 01:44:51;;;;;;;4.60;4.13;;;25.10;99.90;;;;;;1042595;28;20088;-64
2022/07/13 01:45:24;;;;;;;5.10;4.68;;;25.10;99.90;;;;;;1042251;28;20845;-66
2022/07/13 01:45:54;;;;;;;4.60;4.20;;;25.10;99.90;;;;;;1042771;28;20035;-65
2022/07/13 01:46:25;;;;;;;6.27;4.93;;;25.10;99.90;;;;;;1042601;28;20102;-66
2022/07/13 01:46:56;;;;;;;5.35;4.95;;;25.00;99.90;;;;;;1038667;28;20013;-66
2022/07/13 01:47:26;;;;;;;4.73;4.33;;;25.00;99.90;;;;;;1042504;28;20829;-66
2022/07/13 01:47:57;;;;;;;5.07;4.60;;;25.00;99.90;;;;;;1042641;28;20492;-63
2022/07/13 01:48:28;;;;;;;5.10;4.60;;;25.00;99.90;;;;;;1042325;28;20013;-65
2022/07/13 01:48:58;;;;;;;6.43;5.03;;;25.00;99.90;;;;;;1042883;28;20092;-65
2022/07/13 01:49:29;;;;;;;4.10;3.80;;;25.00;99.90;;;;;;1043789;28;20388;-65
2022/07/13 01:49:59;;;;;;;4.73;4.33;;;25.00;99.90;;;;;;1046734;28;20427;-65
2022/07/13 01:50:30;;;;;;;5.60;5.10;;;25.00;99.90;;;;;;1046482;28;20020;-64
2022/07/13 01:51:01;;;;;;;5.43;4.93;;;25.00;99.90;;;;;;1046914;28;20031;-64
2022/07/13 01:51:32;;;;;;;5.10;4.60;;;25.00;99.90;;;;;;1042625;28;20020;-64
2022/07/13 01:52:02;;;;;;;4.97;4.57;;;25.00;99.90;;;;;;1046769;28;20158;-64
2022/07/13 01:52:35;;;;;;;5.43;4.93;;;25.00;99.90;;;;;;1046476;28;20044;-64
2022/07/13 01:53:06;;;;;;;5.18;4.63;;;25.00;99.90;;;;;;1046863;28;20009;-64
2022/07/13 01:53:36;;;;;;;4.43;4.03;;;25.00;99.90;;;;;;1046863;28;20046;-64
2022/07/13 01:54:07;;;;;;;5.10;4.70;;;25.00;99.90;;;;;;1047115;28;20120;-64
2022/07/13 01:54:37;;;;;;;5.40;4.90;;;25.00;99.90;;;;;;1046874;28;20070;-65
2022/07/13 01:55:10;;;;;;;4.80;4.33;;;25.00;99.90;;;;;;1047225;28;20541;-64
2022/07/13 01:55:41;;;;;;;5.25;4.78;;;25.00;99.90;;;;;;1046778;28;20028;-64
2022/07/13 01:56:12;;;;;;;5.40;4.90;;;25.00;99.90;;;;;;1047349;28;20054;-65
2022/07/13 01:56:43;;;;;;;4.53;4.13;;;25.00;99.90;;;;;;1046954;28;20021;-65
2022/07/13 01:57:14;;;;;;;5.00;4.60;;;25.00;99.90;;;;;;1047156;28;20091;-65
2022/07/13 01:57:45;;;;;;;4.87;4.47;;;25.00;99.90;;;;;;1046411;28;20403;-64
2022/07/13 01:58:16;;;;;;;5.00;4.50;;;25.00;99.90;;;;;;1046656;28;20036;-64
2022/07/13 01:58:46;;;;;;;4.80;4.20;;;25.00;99.90;;;;;;1046819;28;20229;-65
2022/07/13 01:59:17;;;;;;;4.10;3.80;;;25.00;99.90;;;;;;1047070;28;20258;-64
2022/07/13 01:59:47;;;;;;;5.13;4.63;;;25.00;99.90;;;;;;1046633;28;20043;-64
2022/07/13 02:00:20;;;;;;;4.37;3.97;;;25.00;99.90;;;;;;1047180;28;20107;-65
2022/07/13 02:00:50;;;;;;;4.75;4.35;;;25.00;99.90;;;;;;1046357;28;20045;-65
2022/07/13 02:01:21;;;;;;;4.70;4.30;;;25.00;99.90;;;;;;1046931;28;20020;-64
2022/07/13 02:01:53;;;;;;;4.53;4.13;;;25.00;99.90;;;;;;1046114;28;20016;-64
2022/07/13 02:02:23;;;;;;;4.78;4.38;;;25.00;99.90;;;;;;1046797;28;20017;-64
2022/07/13 02:02:54;;;;;;;4.87;4.47;;;25.00;99.90;;;;;;1046978;28;20024;-64
2022/07/13 02:03:28;;;;;;;6.03;4.55;;;25.00;99.90;;;;;;1046891;28;20063;-64
2022/07/13 02:03:58;;;;;;;4.65;4.25;;;25.00;99.90;;;;;;1046842;28;20035;-66
2022/07/13 02:04:29;;;;;;;4.27;3.93;;;25.00;99.90;;;;;;1046761;28;20024;-64
2022/07/13 02:04:59;;;;;;;4.47;4.07;;;25.00;99.90;;;;;;1046739;28;20408;-64
2022/07/13 02:05:31;;;;;;;4.20;3.80;;;25.00;99.90;;;;;;1046617;28;20025;-63
2022/07/13 02:06:02;;;;;;;4.25;3.92;;;25.00;99.90;;;;;;1046691;28;20029;-66
2022/07/13 02:06:32;;;;;;;4.33;3.67;;;25.00;99.90;;;;;;1046459;28;20025;-68
2022/07/13 02:07:03;;;;;;;5.50;5.00;;;25.00;99.90;;;;;;1042942;28;20043;-64
2022/07/13 02:07:33;;;;;;;5.80;5.30;;;25.00;99.90;;;;;;1042495;28;20029;-64
2022/07/13 02:08:04;;;;;;;4.73;4.33;;;25.00;99.90;;;;;;1046783;28;20495;-64
2022/07/13 02:08:35;;;;;;;4.50;4.10;;;25.00;99.90;;;;;;1046488;28;20495;-66
2022/07/13 02:09:05;;;;;;;4.60;4.20;;;25.00;99.90;;;;;;1047191;28;20027;-66
2022/07/13 02:09:36;;;;;;;4.47;4.07;;;25.00;99.90;;;;;;1047013;28;20372;-65
2022/07/13 02:10:08;;;;;;;4.60;4.20;;;25.00;99.90;;;;;;1046746;28;20472;-64
2022/07/13 02:10:38;;;;;;;4.45;3.88;;;25.00;99.90;;;;;;1046441;28;20056;-64
2022/07/13 02:11:17;;;;;;;4.33;3.93;;;25.00;99.90;;;;;;1046713;28;20021;-64
2022/07/13 02:11:48;;;;;;;4.28;3.88;;;25.00;99.90;;;;;;1047112;28;20073;-65
2022/07/13 02:12:18;;;;;;;3.80;3.50;;;25.00;99.90;;;;;;1047080;28;20112;-64
2022/07/13 02:12:49;;;;;;;5.10;4.47;;;25.00;99.90;;;;;;1046948;28;20019;-64
2022/07/13 02:13:21;;;;;;;4.80;4.40;;;25.00;99.90;;;;;;1046714;28;20036;-65
2022/07/13 02:13:51;;;;;;;4.20;3.80;;;25.00;99.90;;;;;;1041543;28;20558;-64
2022/07/13 02:14:22;;;;;;;4.27;3.97;;;25.00;99.90;;;;;;1039339;28;20021;-68
2022/07/13 02:14:53;;;;;;;5.70;5.20;;;25.00;99.90;;;;;;1038344;28;20104;-70
2022/07/13 02:15:23;;;;;;;5.33;4.30;;;25.00;99.90;;;;;;1042789;28;20111;-64
2022/07/13 02:15:54;;;;;;;4.30;3.90;;;25.00;99.90;;;;;;1042691;28;20029;-64
2022/07/13 02:16:24;;;;;;;5.80;5.30;;;24.90;99.90;;;;;;1042881;28;20707;-66
2022/07/13 02:16:55;;;;;;;4.10;3.80;;;24.90;99.90;;;;;;1043028;28;20300;-65
2022/07/13 02:17:26;;;;;;;4.20;3.90;;;24.90;99.90;;;;;;1043030;28;20025;-65
2022/07/13 02:17:57;;;;;;;4.80;4.05;;;24.90;99.90;;;;;;1042693;28;20032;-66
2022/07/13 02:18:27;;;;;;;4.53;4.13;;;24.90;99.90;;;;;;1042804;28;20045;-64
2022/07/13 02:18:58;;;;;;;4.67;4.13;;;24.90;99.90;;;;;;1042700;28;20025;-64
2022/07/13 02:19:28;;;;;;;5.10;4.13;;;24.90;99.90;;;;;;1043185;28;20023;-64
2022/07/13 02:19:59;;;;;;;4.37;3.97;;;24.90;99.90;;;;;;1042184;28;20021;-64
2022/07/13 02:20:30;;;;;;;4.17;3.87;;;24.90;99.90;;;;;;1042565;28;20021;-64
2022/07/13 02:21:00;;;;;;;4.70;4.20;;;24.90;99.90;;;;;;1042277;28;20186;-64
2022/07/13 02:21:31;;;;;;;4.17;3.87;;;24.90;99.90;;;;;;1042454;28;20028;-64
2022/07/13 02:22:01;;;;;;;7.07;4.50;;;24.90;99.90;;;;;;1042641;28;20021;-63
2022/07/13 02:22:44;;;;;;;6.50;4.63;;;24.90;99.90;;;;;;1042681;28;20064;-64
2022/07/13 02:23:15;;;;;;;4.97;4.47;;;24.90;99.90;;;;;;1040383;28;20025;-64
2022/07/13 02:23:46;;;;;;;4.90;4.50;;;24.90;99.90;;;;;;1042379;28;20021;-66
2022/07/13 02:24:16;;;;;;;4.90;4.50;;;24.90;99.90;;;;;;1038267;28;20041;-66
2022/07/13 02:24:47;;;;;;;5.37;4.47;;;24.90;99.90;;;;;;1039300;28;20018;-64
2022/07/13 02:25:17;;;;;;;4.20;3.80;;;24.90;99.90;;;;;;1039172;28;20111;-64
2022/07/13 02:25:48;;;;;;;7.43;4.47;;;24.90;99.90;;;;;;1039353;28;20120;-64
2022/07/13 02:26:19;;;;;;;6.17;3.83;;;24.90;99.90;;;;;;1043242;28;20762;-64
2022/07/13 02:26:50;;;;;;;4.13;3.83;;;24.90;99.90;;;;;;1043388;28;20049;-64
2022/07/13 02:27:21;;;;;;;4.53;4.13;;;24.90;99.90;;;;;;1043296;28;20021;-64
2022/07/13 02:27:52;;;;;;;4.50;4.10;;;24.90;99.90;;;;;;1043255;28;20161;-64
2022/07/13 02:28:22;;;;;;;4.87;4.43;;;24.90;99.90;;;;;;1043104;28;20017;-64
2022/07/13 02:28:53;;;;;;;4.53;4.13;;;24.90;99.90;;;;;;1043282;28;20028;-64
2022/07/13 02:29:23;;;;;;;5.50;5.00;;;24.90;99.90;;;;;;1043160;28;20021;-64
2022/07/13 02:29:54;;;;;;;5.60;4.80;;;24.90;99.90;;;;;;1043610;28;20053;-64
2022/07/13 02:30:24;;;;;;;4.67;4.27;;;24.90;99.90;;;;;;1043463;28;20055;-65
2022/07/13 02:30:55;;;;;;;4.90;4.50;;;24.90;99.90;;;;;;1046599;28;20205;-64
2022/07/13 02:31:25;;;;;;;4.73;4.33;;;24.90;99.90;;;;;;1047564;28;20020;-65
2022/07/13 02:31:56;;;;;;;4.53;4.13;;;24.90;99.90;;;;;;1047774;28;20163;-65
2022/07/13 02:32:27;;;;;;;4.80;4.30;;;24.90;99.90;;;;;;1047403;28;20025;-64
2022/07/13 02:32:57;;;;;;;3.73;3.43;;;24.90;99.90;;;;;;1044635;28;20157;-65
2022/07/13 02:33:28;;;;;;;5.10;4.37;;;24.90;99.90;;;;;;1043115;28;20029;-64
2022/07/13 02:33:59;;;;;;;4.13;3.73;;;24.90;99.90;;;;;;1043323;28;20029;-65
2022/07/13 02:34:30;;;;;;;4.38;3.97;;;24.90;99.90;;;;;;1043516;28;20173;-64
2022/07/13 02:35:00;;;;;;;4.90;4.50;;;24.80;99.90;;;;;;1043986;28;20024;-64
2022/07/13 02:35:31;;;;;;;5.20;4.70;;;24.90;99.90;;;;;;1043038;28;20512;-65
2022/07/13 02:36:02;;;;;;;4.40;4.00;;;24.80;99.90;;;;;;1043272;28;20033;-64
2022/07/13 02:36:33;;;;;;;4.63;4.22;;;24.80;99.90;;;;;;1043080;28;20107;-64
2022/07/13 02:37:04;;;;;;;4.00;3.67;;;24.80;99.90;;;;;;1043293;28;20029;-65
2022/07/13 02:37:34;;;;;;;3.60;3.20;;;24.80;99.90;;;;;;1043581;28;20134;-64
2022/07/13 02:38:05;;;;;;;4.23;3.83;;;24.80;99.90;;;;;;1042843;28;20567;-64
2022/07/13 02:38:36;;;;;;;4.00;3.70;;;24.90;99.90;;;;;;1043270;28;20032;-65
2022/07/13 02:39:06;;;;;;;6.00;4.47;;;24.90;99.90;;;;;;1043047;28;20029;-65
2022/07/13 02:39:37;;;;;;;3.60;3.30;;;24.90;99.90;;;;;;1043301;28;20807;-64
2022/07/13 02:40:10;;;;;;;4.20;3.80;;;24.90;99.90;;;;;;1043564;28;20430;-65
2022/07/13 02:40:40;;;;;;;4.07;3.72;;;24.90;99.90;;;;;;1043798;28;20135;-64
2022/07/13 02:41:11;;;;;;;4.17;3.50;;;24.90;99.90;;;;;;1043321;28;20041;-64
2022/07/13 02:41:41;;;;;;;4.67;4.27;;;24.90;99.90;;;;;;1043741;28;20021;-65
2022/07/13 02:42:12;;;;;;;4.00;3.60;;;24.90;99.90;;;;;;1043421;28;20029;-65